Time;durP1;ratioP1;P1;durP2;ratioP2;P2;SDS_P1;SDS_P2;PMS_P1;PMS_P2;Temp;Humidity;BMP_temperature;BMP_pressure;BME280_temperature;BME280_humidity;BME280_pressure;Samples;Min_cycle;Max_cycle;Signal;HPM_P1;HPM_P2
2022/04/25 00:00:38;;;;;;;;;23.00;17.50;;;;;15.15;45.20;100172.91;5053838;28;66510;-51
2022/04/25 00:03:03;;;;;;;;;17.75;15.00;;;;;15.14;45.20;100173.88;5056024;28;45414;-49
2022/04/25 00:05:28;;;;;;;;;17.25;15.75;;;;;15.13;45.05;100180.06;5056512;28;45601;-50
2022/04/25 00:07:54;;;;;;;;;17.00;13.50;;;;;15.11;45.32;100177.50;5053474;28;62110;-49
2022/04/25 00:10:20;;;;;;;;;20.25;15.00;;;;;15.10;45.36;100177.59;5057974;28;45390;-49
2022/04/25 00:12:45;;;;;;;;;22.00;17.00;;;;;15.09;44.90;100181.19;5056295;28;45363;-49
2022/04/25 00:15:11;;;;;;;;;14.50;10.00;;;;;15.06;44.85;100181.34;5062799;28;46687;-49
2022/04/25 00:17:36;;;;;;;;;21.00;15.50;;;;;15.01;44.96;100173.66;5055615;28;46131;-50
2022/04/25 00:20:02;;;;;;;;;16.25;13.00;;;;;14.88;44.83;100155.06;5061862;28;67302;-51
2022/04/25 00:22:28;;;;;;;;;20.00;18.00;;;;;14.96;45.22;100179.22;5056743;28;45295;-50
2022/04/25 00:24:53;;;;;;;;;25.50;20.00;;;;;14.91;45.30;100173.34;5058396;28;66749;-51
2022/04/25 00:27:18;;;;;;;;;25.50;18.00;;;;;14.90;45.33;100176.88;5058886;28;45947;-50
2022/04/25 00:29:44;;;;;;;;;20.25;16.50;;;;;14.89;45.66;100171.69;5060342;28;45415;-49
2022/04/25 00:32:09;;;;;;;;;24.00;19.00;;;;;14.89;45.57;100169.06;5058168;28;45553;-49
2022/04/25 00:34:35;;;;;;;;;25.25;18.00;;;;;14.87;45.95;100171.78;5056380;28;45459;-50
2022/04/25 00:37:01;;;;;;;;;24.00;20.75;;;;;14.85;45.15;100167.53;5059213;28;45336;-50
2022/04/25 00:39:27;;;;;;;;;24.00;19.75;;;;;14.86;45.54;100175.38;5058708;28;45461;-50
2022/04/25 00:41:52;;;;;;;;;21.50;20.50;;;;;14.86;45.29;100182.44;5058251;28;45390;-49
2022/04/25 00:44:18;;;;;;;;;49.00;36.75;;;;;14.84;45.39;100179.00;5059626;28;45493;-49
2022/04/25 00:46:43;;;;;;;;;45.50;34.00;;;;;14.80;45.38;100167.78;5059671;28;67156;-52
2022/04/25 00:49:09;;;;;;;;;32.25;26.00;;;;;14.79;45.63;100169.56;5057070;28;67435;-51
2022/04/25 00:51:34;;;;;;;;;21.25;16.50;;;;;14.78;45.69;100173.16;5059902;28;63834;-50
2022/04/25 00:53:59;;;;;;;;;30.50;20.75;;;;;14.76;45.36;100172.34;5058769;28;45570;-51
2022/04/25 00:56:26;;;;;;;;;18.00;15.50;;;;;14.74;45.55;100176.88;5060750;28;65641;-50
2022/04/25 00:58:51;;;;;;;;;21.75;17.00;;;;;14.74;45.49;100174.22;5056362;28;45961;-50
2022/04/25 01:01:16;;;;;;;;;16.75;13.75;;;;;14.75;45.53;100175.06;5062046;28;45267;-52
2022/04/25 01:03:42;;;;;;;;;14.25;12.00;;;;;14.75;45.81;100182.97;5055179;28;53036;-51
2022/04/25 01:06:07;;;;;;;;;19.50;13.25;;;;;14.69;45.63;100176.25;5061065;28;45914;-53
2022/04/25 01:08:34;;;;;;;;;20.25;12.00;;;;;14.67;45.78;100172.00;5054539;28;45405;-52
2022/04/25 01:11:03;;;;;;;;;16.50;13.25;;;;;14.65;45.63;100168.63;5061786;28;45514;-48
2022/04/25 01:13:29;;;;;;;;;19.00;13.25;;;;;14.63;45.53;100176.59;5059421;28;45399;-52
2022/04/25 01:15:54;;;;;;;;;14.00;12.00;;;;;14.59;45.98;100173.28;5060188;28;64478;-50
2022/04/25 01:18:19;;;;;;;;;19.75;13.00;;;;;14.54;45.67;100177.88;5058738;28;66198;-52
2022/04/25 01:20:45;;;;;;;;;15.75;10.50;;;;;14.50;45.96;100178.13;5060497;28;61714;-50
2022/04/25 01:28:43;;;;;;;;;18.00;13.25;;;;;14.43;46.35;100170.56;5050888;28;45508;-51
2022/04/25 01:31:08;;;;;;;;;17.00;12.25;;;;;14.43;46.72;100169.72;5061162;28;56754;-52
2022/04/25 01:33:34;;;;;;;;;16.50;13.50;;;;;14.40;46.45;100178.59;5059757;28;45284;-51
2022/04/25 01:35:59;;;;;;;;;18.25;13.25;;;;;14.39;46.54;100178.69;5055978;28;47269;-51
2022/04/25 01:38:25;;;;;;;;;12.75;11.00;;;;;14.36;46.14;100187.59;5058854;28;45288;-52
2022/04/25 01:40:50;;;;;;;;;16.75;12.75;;;;;14.32;46.38;100178.13;5061263;28;45602;-50
2022/04/25 01:43:15;;;;;;;;;18.25;13.75;;;;;14.28;46.72;100181.88;5053823;28;53208;-52
2022/04/25 01:45:41;;;;;;;;;18.00;16.00;;;;;14.25;46.73;100184.66;5057476;28;64922;-51
2022/04/25 01:48:06;;;;;;;;;18.75;14.00;;;;;14.23;46.55;100182.09;5052334;28;65737;-48
2022/04/25 01:50:32;;;;;;;;;20.50;16.00;;;;;14.20;46.89;100184.03;5057358;28;45499;-50
2022/04/25 01:52:57;;;;;;;;;20.75;16.00;;;;;14.18;46.81;100191.16;5055898;28;67223;-51
2022/04/25 01:55:23;;;;;;;;;21.25;14.50;;;;;14.12;46.44;100181.81;5056883;28;66706;-51
2022/04/25 01:57:48;;;;;;;;;15.50;13.75;;;;;14.08;47.05;100189.91;5054726;28;45280;-52
2022/04/25 02:00:14;;;;;;;;;17.00;16.00;;;;;14.04;47.16;100187.47;5059030;28;62339;-51
2022/04/25 02:02:39;;;;;;;;;15.50;13.50;;;;;14.00;47.00;100196.41;5057336;28;45372;-52
2022/04/25 02:05:06;;;;;;;;;17.25;15.75;;;;;13.95;47.42;100201.09;5047563;28;63439;-51
2022/04/25 02:07:31;;;;;;;;;22.50;15.50;;;;;13.90;47.30;100187.31;5056931;28;45791;-53
2022/04/25 02:09:57;;;;;;;;;24.00;15.25;;;;;13.87;48.29;100203.22;5057731;28;45359;-51
2022/04/25 02:12:22;;;;;;;;;23.50;17.50;;;;;13.84;47.89;100208.63;5052554;28;65896;-51
2022/04/25 02:14:48;;;;;;;;;20.25;14.25;;;;;13.83;47.91;100204.31;5059144;28;65731;-49
2022/04/25 02:17:16;;;;;;;;;21.75;15.25;;;;;13.79;47.67;100206.25;5058556;28;45347;-50
2022/04/25 02:19:43;;;;;;;;;19.50;16.00;;;;;13.79;48.12;100214.13;5053794;28;45331;-50
2022/04/25 02:22:10;;;;;;;;;20.50;13.75;;;;;13.77;48.00;100218.59;5057538;28;47522;-49
2022/04/25 02:24:35;;;;;;;;;20.25;16.75;;;;;13.77;48.20;100213.31;5057089;28;46894;-51
2022/04/25 02:27:03;;;;;;;;;20.00;17.75;;;;;13.76;48.00;100216.06;5054042;28;45340;-50
2022/04/25 02:29:29;;;;;;;;;19.50;12.75;;;;;13.74;48.59;100213.50;5052035;28;45511;-50
2022/04/25 02:31:55;;;;;;;;;19.25;17.50;;;;;13.73;48.42;100210.94;5057724;28;45425;-51
2022/04/25 02:34:21;;;;;;;;;23.25;15.25;;;;;13.73;48.44;100214.41;5058487;28;68233;-52
2022/04/25 02:36:46;;;;;;;;;15.50;11.75;;;;;13.73;47.94;100203.06;5057462;28;45457;-51
2022/04/25 02:39:11;;;;;;;;;18.75;16.25;;;;;13.69;48.65;100215.50;5057766;28;59876;-51
2022/04/25 02:41:37;;;;;;;;;20.50;17.75;;;;;13.64;49.15;100215.72;5056798;28;65840;-51
2022/04/25 02:44:02;;;;;;;;;14.50;13.50;;;;;13.60;49.18;100218.56;5051900;28;68003;-51
2022/04/25 02:46:28;;;;;;;;;19.00;15.00;;;;;13.58;49.20;100208.13;5060180;28;45277;-50
2022/04/25 02:48:53;;;;;;;;;20.00;15.25;;;;;13.56;49.59;100215.22;5053491;28;47082;-50
2022/04/25 02:51:18;;;;;;;;;14.75;13.75;;;;;13.55;48.96;100215.31;5059485;28;64231;-52
2022/04/25 02:53:44;;;;;;;;;17.25;16.00;;;;;13.55;48.80;100210.91;5052352;28;64290;-49
2022/04/25 02:56:09;;;;;;;;;19.00;16.25;;;;;13.56;49.22;100217.84;5055975;28;63216;-51
2022/04/25 02:58:35;;;;;;;;;19.25;15.00;;;;;13.58;49.10;100217.78;5056606;28;63308;-51
2022/04/25 03:01:01;;;;;;;;;17.00;13.50;;;;;13.60;49.31;100215.94;5060432;28;45594;-52
2022/04/25 03:03:26;;;;;;;;;21.00;18.75;;;;;13.59;49.32;100211.59;5054429;28;46766;-51
2022/04/25 03:05:52;;;;;;;;;21.00;18.50;;;;;13.58;49.21;100213.38;5058148;28;56360;-49
2022/04/25 03:08:19;;;;;;;;;20.25;13.00;;;;;13.56;49.10;100222.25;5050558;28;45392;-52
2022/04/25 03:10:45;;;;;;;;;20.00;17.00;;;;;13.53;49.47;100225.91;5052577;28;45449;-52
2022/04/25 03:13:14;;;;;;;;;20.00;17.00;;;;;13.53;49.70;100227.66;5053498;28;46167;-50
2022/04/25 03:15:40;;;;;;;;;18.25;14.25;;;;;13.47;49.71;100218.28;5059305;28;45819;-49
2022/04/25 03:18:07;;;;;;;;;24.75;18.50;;;;;13.45;49.87;100226.25;5052211;28;45277;-49
2022/04/25 03:20:33;;;;;;;;;15.00;15.00;;;;;13.43;49.83;100224.63;5059243;28;45349;-50
2022/04/25 03:22:58;;;;;;;;;23.75;19.25;;;;;13.39;50.16;100220.44;5053131;28;46406;-48
2022/04/25 03:25:24;;;;;;;;;19.25;18.25;;;;;13.36;50.54;100221.44;5060013;28;45316;-52
2022/04/25 03:27:49;;;;;;;;;20.25;18.25;;;;;13.35;50.02;100216.22;5052910;28;54560;-49
2022/04/25 03:30:15;;;;;;;;;27.75;18.50;;;;;13.29;50.55;100218.19;5058948;28;45406;-51
2022/04/25 03:32:45;;;;;;;;;17.00;14.50;;;;;13.27;49.91;100217.41;5056247;28;67886;-52
2022/04/25 03:35:13;;;;;;;;;22.50;15.75;;;;;13.23;50.79;100217.66;5057991;28;45893;-53
2022/04/25 03:37:39;;;;;;;;;19.25;17.50;;;;;13.19;51.12;100229.19;5055928;28;45528;-52
2022/04/25 03:40:05;;;;;;;;;23.75;17.00;;;;;13.16;51.79;100224.94;5056907;27;45499;-51
2022/04/25 03:42:31;;;;;;;;;23.00;18.50;;;;;13.14;50.94;100233.81;5055841;28;47177;-50
2022/04/25 03:44:56;;;;;;;;;21.50;18.00;;;;;13.10;51.63;100231.34;5059436;28;45294;-49
2022/04/25 03:47:21;;;;;;;;;21.25;17.75;;;;;13.08;51.37;100230.56;5056141;28;45868;-49
2022/04/25 03:49:47;;;;;;;;;19.75;18.25;;;;;13.08;51.32;100235.81;5056349;28;65731;-51
2022/04/25 03:52:12;;;;;;;;;22.00;18.50;;;;;13.08;50.96;100243.69;5054917;28;67775;-49
2022/04/25 03:57:22;;;;;;;;;30.75;23.25;;;;;13.06;50.80;100234.16;5057174;28;45524;-49
2022/04/25 03:59:47;;;;;;;;;24.00;18.75;;;;;13.03;51.00;100234.31;5056220;28;65794;-49
2022/04/25 04:02:12;;;;;;;;;26.00;18.50;;;;;13.01;51.90;100242.25;5057233;28;45874;-50
2022/04/25 04:04:38;;;;;;;;;28.75;20.25;;;;;13.01;51.25;100249.28;5055809;28;66329;-50
2022/04/25 04:07:03;;;;;;;;;22.25;17.25;;;;;13.00;51.62;100253.69;5055145;28;45263;-50
2022/04/25 04:09:47;;;;;;;;;30.50;23.75;;;;;12.99;52.01;100236.22;5055193;28;45362;-49
2022/04/25 04:12:14;;;;;;;;;29.25;21.50;;;;;13.00;52.24;100247.59;5048635;28;45359;-50
2022/04/25 04:14:40;;;;;;;;;16.75;15.25;;;;;13.00;52.22;100252.84;5058711;28;45394;-51
2022/04/25 04:17:08;;;;;;;;;24.00;18.00;;;;;12.97;51.84;100248.56;5057384;28;45459;-49
2022/04/25 04:19:37;;;;;;;;;24.25;20.25;;;;;12.97;52.03;100256.44;5050807;28;45426;-52
2022/04/25 04:22:03;;;;;;;;;27.25;21.00;;;;;12.94;51.91;100253.94;5055424;28;45366;-50
2022/04/25 04:24:30;;;;;;;;;26.75;23.25;;;;;12.93;51.52;100259.31;5055160;28;45312;-52
2022/04/25 04:26:58;;;;;;;;;26.50;22.50;;;;;12.87;52.33;100257.78;5056872;28;45281;-52
2022/04/25 04:29:23;;;;;;;;;21.00;19.50;;;;;12.85;51.58;100273.59;5052482;28;45621;-48
2022/04/25 04:31:49;;;;;;;;;23.00;18.50;;;;;12.79;52.25;100267.78;5056838;28;48398;-52
2022/04/25 04:34:15;;;;;;;;;27.75;23.00;;;;;12.78;51.82;100266.06;5057817;28;45390;-51
2022/04/25 04:36:40;;;;;;;;;29.25;22.75;;;;;12.77;52.32;100272.25;5057698;28;45256;-49
2022/04/25 04:39:06;;;;;;;;;28.25;22.75;;;;;12.74;52.65;100265.34;5053865;28;62025;-52
2022/04/25 04:41:31;;;;;;;;;24.00;21.00;;;;;12.71;52.97;100276.84;5055464;28;64949;-52
2022/04/25 04:43:57;;;;;;;;;32.25;21.50;;;;;12.69;52.99;100276.03;5048775;28;45445;-51
2022/04/25 04:46:23;;;;;;;;;16.75;14.00;;;;;12.68;52.99;100276.97;5057660;28;45537;-53
2022/04/25 04:48:49;;;;;;;;;33.50;23.25;;;;;12.66;53.19;100281.44;5051843;28;45447;-50
2022/04/25 04:51:14;;;;;;;;;31.00;23.00;;;;;12.63;54.38;100294.69;5056487;28;69395;-51
2022/04/25 04:53:40;;;;;;;;;31.50;24.75;;;;;12.60;53.96;100292.19;5051113;28;45622;-49
2022/04/25 04:56:05;;;;;;;;;30.00;24.00;;;;;12.53;53.76;100298.63;5059910;28;58275;-52
2022/04/25 04:58:30;;;;;;;;;33.00;23.25;;;;;12.51;53.50;100303.06;5059161;28;45454;-49
2022/04/25 05:00:56;;;;;;;;;27.50;23.50;;;;;12.51;53.07;100306.53;5060658;28;45272;-49
2022/04/25 05:03:25;;;;;;;;;29.50;25.00;;;;;12.54;53.57;100314.31;5056977;28;59807;-52
2022/04/25 05:05:51;;;;;;;;;31.50;23.75;;;;;12.53;53.43;100315.22;5062238;28;45312;-50
2022/04/25 05:08:17;;;;;;;;;30.25;26.00;;;;;12.52;54.17;100315.28;5057859;28;45768;-49
2022/04/25 05:10:43;;;;;;;;;33.25;30.00;;;;;12.45;53.52;100317.31;5058371;28;47276;-49
2022/04/25 05:13:08;;;;;;;;;32.50;25.75;;;;;12.44;53.30;100318.22;5053830;28;45236;-52
2022/04/25 05:15:33;;;;;;;;;34.75;27.50;;;;;12.40;54.63;100319.28;5060608;28;45266;-51
2022/04/25 05:18:00;;;;;;;;;35.00;27.00;;;;;12.37;54.02;100315.91;5055393;28;45469;-49
2022/04/25 05:20:26;;;;;;;;;35.00;26.75;;;;;12.41;53.58;100325.38;5060543;28;46247;-49
2022/04/25 05:22:52;;;;;;;;;38.00;30.50;;;;;12.42;53.90;100332.34;5056971;28;45398;-51
2022/04/25 05:25:19;;;;;;;;;37.25;31.50;;;;;12.38;54.44;100325.47;5053811;28;47074;-52
2022/04/25 05:27:48;;;;;;;;;36.50;25.25;;;;;12.43;53.74;100334.03;5056023;28;45486;-53
2022/04/25 05:30:14;;;;;;;;;35.50;25.25;;;;;12.38;54.21;100339.47;5058347;28;46532;-53
2022/04/25 05:32:58;;;;;;;;;32.50;26.25;;;;;12.35;54.87;100343.06;5055538;28;45626;-49
2022/04/25 05:35:27;;;;;;;;;36.75;28.75;;;;;12.36;53.93;100343.94;5056547;28;45515;-52
2022/04/25 05:37:52;;;;;;;;;39.75;31.50;;;;;12.34;53.91;100343.13;5055497;28;45545;-53
2022/04/25 05:40:18;;;;;;;;;39.00;33.00;;;;;12.30;54.70;100345.03;5060297;28;45416;-55
2022/04/25 05:42:44;;;;;;;;;43.00;32.50;;;;;12.28;54.23;100341.59;5056139;28;45369;-54
2022/04/25 05:45:10;;;;;;;;;40.00;31.00;;;;;12.27;54.50;100339.91;5058985;28;45374;-54
2022/04/25 05:47:35;;;;;;;;;41.50;32.25;;;;;12.26;54.43;100350.47;5057787;28;45469;-54
2022/04/25 05:52:46;;;;;;;;;40.75;31.75;;;;;12.22;54.23;100362.84;5054828;28;45403;-55
2022/04/25 05:55:11;;;;;;;;;37.00;32.75;;;;;12.22;54.38;100364.63;5057816;28;45279;-55
2022/04/25 05:57:36;;;;;;;;;44.75;34.75;;;;;12.21;54.52;100365.53;5058358;28;45426;-50
2022/04/25 06:00:04;;;;;;;;;40.50;36.25;;;;;12.18;54.14;100371.75;5058625;28;52421;-50
2022/04/25 06:02:29;;;;;;;;;41.00;35.25;;;;;12.18;54.90;100363.03;5057271;28;45376;-51
2022/04/25 06:04:55;;;;;;;;;52.00;36.25;;;;;12.15;54.73;100372.72;5055622;28;59965;-48
2022/04/25 06:07:20;;;;;;;;;47.50;37.50;;;;;12.13;54.49;100378.97;5055398;28;45449;-48
2022/04/25 06:09:45;;;;;;;;;42.00;34.75;;;;;12.07;55.04;100384.44;5059602;28;63702;-50
2022/04/25 06:12:11;;;;;;;;;41.00;33.75;;;;;12.04;54.84;100390.66;5057813;28;66127;-47
2022/04/25 06:14:36;;;;;;;;;47.00;36.00;;;;;11.99;55.18;100387.38;5053931;28;59777;-49
2022/04/25 06:17:02;;;;;;;;;44.00;35.50;;;;;11.92;56.58;100386.75;5056665;28;65832;-47
2022/04/25 06:19:27;;;;;;;;;44.25;30.50;;;;;11.89;55.61;100389.44;5056806;28;45974;-46
2022/04/25 06:21:53;;;;;;;;;48.00;39.25;;;;;11.86;56.01;100397.41;5058160;28;60047;-46
2022/04/25 06:24:18;;;;;;;;;50.00;35.50;;;;;11.85;55.50;100400.13;5056560;28;62545;-54
2022/04/25 06:26:44;;;;;;;;;54.50;37.75;;;;;11.82;55.49;100401.06;5058296;28;45661;-48
2022/04/25 06:29:09;;;;;;;;;40.00;33.00;;;;;11.82;55.67;100400.22;5062699;28;46142;-42
2022/04/25 06:31:35;;;;;;;;;47.00;36.25;;;;;11.80;55.47;100396.81;5056836;28;45295;-44
2022/04/25 06:34:00;;;;;;;;;52.50;39.25;;;;;11.77;55.50;100400.38;5055065;28;45321;-49
2022/04/25 06:36:26;;;;;;;;;47.50;37.50;;;;;11.75;55.36;100402.22;5059882;28;45319;-47
2022/04/25 06:38:51;;;;;;;;;48.75;37.50;;;;;11.50;55.67;100379.53;5054748;28;69329;-46
2022/04/25 06:41:17;;;;;;;;;47.25;36.25;;;;;11.81;55.39;100404.63;5054096;28;45359;-55
2022/04/25 06:43:42;;;;;;;;;51.25;39.50;;;;;11.83;55.36;100401.91;5053071;28;61132;-55
2022/04/25 06:46:07;;;;;;;;;52.75;38.75;;;;;11.74;55.20;100404.00;5056792;28;65502;-57
2022/04/25 06:48:33;;;;;;;;;51.75;40.00;;;;;11.66;55.29;100402.56;5055944;28;68581;-56
2022/04/25 06:50:58;;;;;;;;;46.75;36.25;;;;;11.60;55.23;100411.50;5063328;28;45298;-56
2022/04/25 06:53:24;;;;;;;;;44.00;35.75;;;;;11.52;55.35;100413.53;5050489;28;45380;-56
2022/04/25 06:55:49;;;;;;;;;52.75;40.00;;;;;11.48;55.47;100412.81;5055437;28;66109;-56
2022/04/25 06:58:14;;;;;;;;;50.75;39.25;;;;;11.47;55.53;100413.69;5053455;28;59809;-56
2022/04/25 07:00:40;;;;;;;;;47.00;36.00;;;;;11.48;55.72;100414.56;5057680;28;64297;-56
2022/04/25 07:03:06;;;;;;;;;46.50;38.75;;;;;11.47;55.64;100413.69;5052795;28;47628;-56
2022/04/25 07:05:31;;;;;;;;;55.50;39.50;;;;;11.50;55.70;100410.13;5059518;28;45218;-56
2022/04/25 07:07:57;;;;;;;;;54.25;43.25;;;;;11.49;55.65;100418.88;5056371;28;47271;-57
2022/04/25 07:10:22;;;;;;;;;45.00;35.50;;;;;11.53;55.58;100425.75;5048679;28;48326;-57
2022/04/25 07:12:47;;;;;;;;;53.25;39.00;;;;;11.54;55.81;100423.06;5055833;28;45422;-57
2022/04/25 07:15:13;;;;;;;;;51.25;40.00;;;;;11.58;55.72;100426.44;5059492;28;45326;-56
2022/04/25 07:17:38;;;;;;;;;46.25;36.25;;;;;11.62;55.50;100427.19;5057130;28;46085;-56
2022/04/25 07:20:04;;;;;;;;;49.50;38.00;;;;;11.67;55.95;100428.72;5052572;28;63528;-57
2022/04/25 07:30:41;;;;;;;;;49.00;39.25;;;;;11.76;55.28;100436.25;5059644;28;45880;-57
2022/04/25 07:33:07;;;;;;;;;54.00;40.50;;;;;11.74;55.28;100438.06;5054532;28;56127;-56
2022/04/25 07:35:34;;;;;;;;;50.25;38.50;;;;;11.76;56.02;100446.72;5058137;28;70259;-57
2022/04/25 07:38:00;;;;;;;;;47.50;39.25;;;;;11.82;55.19;100439.56;5052912;28;46300;-57
2022/04/25 07:40:25;;;;;;;;;52.75;40.25;;;;;11.91;55.46;100437.47;5037466;28;60141;-57
2022/04/25 07:42:50;;;;;;;;;52.00;37.25;;;;;11.97;55.14;100444.28;5054273;28;45466;-58
2022/04/25 07:45:16;;;;;;;;;52.25;39.25;;;;;12.08;54.96;100431.59;5056645;28;45329;-57
2022/04/25 07:47:43;;;;;;;;;48.00;37.00;;;;;12.18;54.87;100437.31;5053912;28;68187;-57
2022/04/25 07:50:12;;;;;;;;;48.00;33.75;;;;;12.26;54.81;100443.16;5053465;28;46789;-57
2022/04/25 07:52:37;;;;;;;;;51.50;38.25;;;;;12.32;54.66;100445.53;5054206;28;45616;-58
2022/04/25 07:55:03;;;;;;;;;48.50;37.75;;;;;12.38;54.68;100448.81;5059220;28;45452;-57
2022/04/25 07:57:28;;;;;;;;;46.75;36.75;;;;;12.44;54.71;100443.34;5052990;28;46107;-57
2022/04/25 07:59:54;;;;;;;;;54.25;39.25;;;;;12.51;54.34;100444.81;5058841;28;45286;-57
2022/04/25 08:02:20;;;;;;;;;57.25;41.00;;;;;12.60;54.17;100451.47;5057253;28;45358;-57
2022/04/25 08:04:45;;;;;;;;;52.50;42.75;;;;;12.67;54.07;100459.03;5058155;28;45771;-58
2022/04/25 08:07:12;;;;;;;;;55.25;43.00;;;;;12.79;53.82;100454.22;5058584;28;45457;-57
2022/04/25 08:09:37;;;;;;;;;49.25;38.00;;;;;12.88;53.75;100456.47;5058719;28;45584;-58
2022/04/25 08:20:15;;;;;;;;;47.25;37.00;;;;;13.01;53.67;100472.56;5055073;28;45954;-57
2022/04/25 08:22:40;;;;;;;;;48.25;36.50;;;;;13.16;52.82;100473.72;5052656;28;45370;-57
2022/04/25 08:25:08;;;;;;;;;48.00;38.00;;;;;13.21;52.91;100474.34;5054000;28;67204;-57
2022/04/25 08:27:34;;;;;;;;;48.25;38.00;;;;;13.22;52.44;100481.31;5054168;28;46961;-57
2022/04/25 08:29:59;;;;;;;;;45.50;37.25;;;;;13.25;52.69;100478.56;5058761;28;45336;-58
2022/04/25 08:32:25;;;;;;;;;49.25;36.75;;;;;13.29;52.81;100482.78;5056834;28;45577;-57
2022/04/25 08:34:50;;;;;;;;;45.50;36.75;;;;;13.32;52.42;100487.09;5059288;28;45965;-57
2022/04/25 08:37:16;;;;;;;;;47.75;37.50;;;;;13.42;52.51;100491.00;5054980;28;70398;-57
2022/04/25 08:39:41;;;;;;;;;47.75;38.50;;;;;13.53;52.06;100496.69;5060210;28;45364;-60
2022/04/25 08:42:09;;;;;;;;;52.00;39.00;;;;;13.66;52.05;100500.47;5058563;28;45303;-58
2022/04/25 08:44:34;;;;;;;;;46.25;36.00;;;;;13.72;51.54;100506.38;5060804;28;45529;-57
2022/04/25 08:47:00;;;;;;;;;39.25;35.25;;;;;13.65;51.67;100500.53;5053698;28;46028;-57
2022/04/25 08:49:25;;;;;;;;;45.00;35.75;;;;;13.69;51.43;100504.75;5058235;28;45528;-58
2022/04/25 08:51:58;;;;;;;;;48.50;38.75;;;;;13.73;51.40;100508.09;5056930;28;45372;-58
2022/04/25 08:54:24;;;;;;;;;42.50;34.50;;;;;13.82;51.45;100511.16;5056080;28;45502;-58
2022/04/25 08:56:50;;;;;;;;;39.50;31.75;;;;;13.95;51.30;100514.13;5034017;28;46189;-58
2022/04/25 08:59:15;;;;;;;;;43.00;34.25;;;;;14.01;51.25;100516.47;5049916;28;62675;-58
2022/04/25 09:01:41;;;;;;;;;49.75;38.00;;;;;14.12;51.27;100518.63;5043956;28;64323;-57
2022/04/25 09:04:06;;;;;;;;;42.75;35.25;;;;;14.28;50.91;100518.78;5057973;27;64445;-57
2022/04/25 09:06:31;;;;;;;;;45.25;35.50;;;;;14.41;50.36;100516.44;5060229;28;46040;-57
2022/04/25 09:08:57;;;;;;;;;43.50;32.50;;;;;14.50;50.14;100523.03;5056354;28;67527;-58
2022/04/25 09:14:09;;;;;;;;;43.00;35.25;;;;;15.05;50.10;100520.47;5057336;28;45440;-58
2022/04/25 09:16:34;;;;;;;;;45.75;35.00;;;;;16.52;47.98;100490.81;5060288;28;45791;-58
2022/04/25 09:19:00;;;;;;;;;43.00;35.00;;;;;17.67;45.97;100508.03;5039426;28;58170;-58
2022/04/25 09:21:25;;;;;;;;;41.75;33.25;;;;;19.26;44.82;100515.63;5059574;28;45248;-58
2022/04/25 09:23:53;;;;;;;;;44.25;33.75;;;;;19.58;43.32;100520.56;5055224;28;58902;-58
2022/04/25 09:26:27;;;;;;;;;44.00;36.00;;;;;20.69;41.51;100512.00;5058009;28;67234;-58
2022/04/25 09:28:54;;;;;;;;;42.50;33.75;;;;;21.79;40.43;100518.81;5053943;28;45553;-58
2022/04/25 09:31:20;;;;;;;;;44.25;34.75;;;;;23.72;38.39;100516.56;5061317;28;45466;-58
2022/04/25 09:33:45;;;;;;;;;47.25;34.00;;;;;24.73;36.03;100510.34;5057363;28;45351;-59
2022/04/25 09:36:11;;;;;;;;;33.00;29.00;;;;;25.95;35.31;100524.09;5057355;28;45469;-57
2022/04/25 09:38:37;;;;;;;;;44.00;32.25;;;;;27.50;33.74;100515.22;5056969;28;45489;-58
2022/04/25 09:41:06;;;;;;;;;34.25;30.50;;;;;28.92;32.73;100516.53;5058430;28;45619;-58
2022/04/25 09:43:32;;;;;;;;;31.75;30.25;;;;;29.95;29.77;100528.63;5057924;28;45747;-58
2022/04/25 09:46:02;;;;;;;;;36.75;31.00;;;;;30.79;28.67;100527.06;5058901;28;45310;-58
2022/04/25 09:48:28;;;;;;;;;32.25;29.50;;;;;31.53;27.20;100525.69;5055221;28;45785;-58
2022/04/25 09:51:06;;;;;;;;;35.50;31.00;;;;;31.98;26.14;100532.00;5057191;28;45340;-58
2022/04/25 09:54:03;;;;;;;;;34.00;30.00;;;;;32.65;26.12;100522.88;5049513;28;45600;-56
2022/04/25 09:56:34;;;;;;;;;32.25;29.00;;;;;32.76;25.05;100523.38;5055508;28;47093;-51
2022/04/25 09:59:06;;;;;;;;;26.25;24.50;;;;;33.45;25.54;100517.41;5052365;28;46002;-48
2022/04/25 10:01:34;;;;;;;;;34.25;28.50;;;;;33.98;23.33;100520.47;5053166;28;45396;-51
2022/04/25 10:04:00;;;;;;;;;30.25;29.25;;;;;34.53;23.59;100527.81;5057155;28;45414;-49
2022/04/25 10:06:25;;;;;;;;;33.75;28.25;;;;;35.07;23.07;100524.19;5060317;28;45933;-51
2022/04/25 10:08:52;;;;;;;;;27.50;27.00;;;;;35.58;21.97;100528.19;5033270;28;45556;-53
2022/04/25 10:11:19;;;;;;;;;29.50;23.25;;;;;35.49;21.65;100530.28;5061077;28;45350;-50
2022/04/25 10:13:44;;;;;;;;;31.50;25.50;;;;;35.23;21.60;100527.59;5058507;28;45628;-49
2022/04/25 10:16:09;;;;;;;;;28.00;26.50;;;;;35.84;21.34;100534.66;5043111;28;46441;-58
2022/04/25 10:18:37;;;;;;;;;32.75;26.00;;;;;36.27;19.08;100536.88;5057962;28;59174;-54
2022/04/25 10:21:06;;;;;;;;;28.25;26.25;;;;;36.22;20.95;100536.69;5072555;28;45369;-56
2022/04/25 10:23:31;;;;;;;;;32.00;28.25;;;;;36.66;20.28;100527.66;5055609;28;45524;-59
2022/04/25 10:25:58;;;;;;;;;31.25;25.25;;;;;37.20;19.37;100539.09;5060340;28;66053;-58
2022/04/25 10:28:29;;;;;;;;;26.25;24.25;;;;;37.59;17.12;100533.47;5019479;28;45397;-57
2022/04/25 10:30:58;;;;;;;;;28.75;26.75;;;;;37.98;19.00;100525.94;5044262;28;45344;-59
2022/04/25 10:33:23;;;;;;;;;23.00;19.00;;;;;38.26;18.44;100532.81;5049623;28;45426;-55
2022/04/25 10:35:50;;;;;;;;;32.25;25.50;;;;;38.48;17.32;100528.50;5059981;28;67424;-66
2022/04/25 10:44:31;;;;;;;;;29.50;21.00;;;;;39.59;16.65;100528.06;5057722;28;45337;-58
2022/04/25 10:47:03;;;;;;;;;20.75;20.00;;;;;40.00;16.40;100539.13;5052202;28;46193;-57
2022/04/25 10:49:38;;;;;;;;;21.25;18.25;;;;;40.11;15.67;100535.53;5055900;28;45443;-58
2022/04/25 10:52:05;;;;;;;;;21.50;17.25;;;;;38.83;15.86;100524.25;5044751;28;45477;-59
2022/04/25 10:54:47;;;;;;;;;21.00;18.25;;;;;35.69;17.81;100537.59;5053480;28;45402;-59
2022/04/25 10:57:15;;;;;;;;;22.00;19.25;;;;;32.96;17.80;100534.47;5053814;28;45629;-58
2022/04/25 10:59:40;;;;;;;;;17.25;16.25;;;;;30.65;19.85;100531.38;5051569;28;45746;-58
2022/04/25 11:02:22;;;;;;;;;26.00;23.00;;;;;28.85;20.80;100526.28;5057379;28;45813;-58
2022/04/25 11:04:47;;;;;;;;;18.25;18.25;;;;;27.43;22.80;100541.84;5052786;28;45246;-58
2022/04/25 11:07:23;;;;;;;;;17.25;16.50;;;;;26.21;23.72;100530.66;5056127;28;69851;-58
2022/04/25 11:09:49;;;;;;;;;15.00;14.25;;;;;25.20;24.40;100531.94;5058784;28;45447;-58
2022/04/25 11:12:15;;;;;;;;;20.25;17.00;;;;;24.31;24.89;100533.72;5056641;28;45227;-58
2022/04/25 11:15:00;;;;;;;;;19.00;17.75;;;;;23.47;25.69;100532.84;5047014;28;65762;-58
2022/04/25 11:17:26;;;;;;;;;21.75;17.75;;;;;22.94;26.09;100524.78;5043131;28;45926;-58
2022/04/25 11:19:54;;;;;;;;;17.00;16.25;;;;;22.50;26.68;100527.44;5058752;28;45414;-58
2022/04/25 11:22:39;;;;;;;;;18.25;16.75;;;;;22.03;27.15;100531.19;5055683;28;45545;-58
2022/04/25 11:25:23;;;;;;;;;16.25;15.50;;;;;21.66;27.58;100528.75;5054607;28;45589;-58
2022/04/25 11:28:00;;;;;;;;;22.50;16.50;;;;;21.38;28.25;100525.50;5052936;28;45644;-57
2022/04/25 11:30:25;;;;;;;;;22.25;18.00;;;;;21.15;28.34;100524.56;5059265;28;45322;-59
2022/04/25 11:32:51;;;;;;;;;22.50;19.75;;;;;20.86;30.06;100520.44;5033654;28;62699;-51
2022/04/25 11:35:16;;;;;;;;;19.25;15.50;;;;;20.54;30.56;100530.75;5041014;28;66001;-48
2022/04/25 11:37:41;;;;;;;;;15.50;14.75;;;;;20.30;30.11;100526.22;5038299;28;66819;-50
2022/04/25 11:40:08;;;;;;;;;22.00;17.00;;;;;20.10;30.27;100529.44;5057762;28;47909;-49
2022/04/25 11:42:35;;;;;;;;;17.00;16.25;;;;;19.76;30.35;100534.44;5056909;28;45290;-58